CWAE

Whistler Airport

British Columbia, Canada

CWAE 210100Z 00000KT 15SM -SHRA OVC062 11/08 A2971 RMK SC8 LAST OBS/NEXT 211300UTC WND ESTD SLP068 DENSITY ALT 2400FT

Observed Flight Rules
Sep-21 @ 01:00 UTC (9 hours ago)
 
Visual Flight Rules
Wind Visibility Clouds Conditions
Calm 15 miles
  • Overcast at 6,200' AGL
  • Light Rain
Temperatures Readings
Current 11°C / 52°F
Dewpoint 8°C / 46°F
Humidity 82%
Altimeter 29.71" Hg
Pressure 1006.8 hPa
Elevation 658
Observed Flight Rules
Sep-21 @ 01:00 UTC
(9 hours ago)
 
VFR
Wind Visibility
Calm 15 miles
Clouds Conditions
  • Overcast at 6,200' AGL
  • Light Rain
Temperature Dewpoint
11°C / 52°F 8°C / 46°F
Humidity Altimeter Pressure
82% 29.71" Hg 1006.8 hPa